sensor_id;sensor_type;location;lat;lon;timestamp;P1;durP1;ratioP1;P2;durP2;ratioP2
22129;SDS011;11231;50.746;4.272;2023-09-07T00:01:54;12.70;;;5.93;;
22129;SDS011;11231;50.746;4.272;2023-09-07T00:04:20;11.57;;;6.43;;
22129;SDS011;11231;50.746;4.272;2023-09-07T00:06:48;13.67;;;6.30;;
22129;SDS011;11231;50.746;4.272;2023-09-07T00:09:15;12.93;;;6.10;;
22129;SDS011;11231;50.746;4.272;2023-09-07T00:11:43;12.77;;;6.77;;
22129;SDS011;11231;50.746;4.272;2023-09-07T00:14:13;11.23;;;6.57;;
22129;SDS011;11231;50.746;4.272;2023-09-07T00:16:39;12.00;;;6.13;;
22129;SDS011;11231;50.746;4.272;2023-09-07T00:19:04;12.50;;;6.57;;
22129;SDS011;11231;50.746;4.272;2023-09-07T00:21:30;14.23;;;6.67;;
22129;SDS011;11231;50.746;4.272;2023-09-07T00:23:56;10.87;;;6.30;;
22129;SDS011;11231;50.746;4.272;2023-09-07T00:26:22;11.03;;;6.10;;
22129;SDS011;11231;50.746;4.272;2023-09-07T00:28:48;11.70;;;6.60;;
22129;SDS011;11231;50.746;4.272;2023-09-07T00:31:14;11.43;;;6.40;;
22129;SDS011;11231;50.746;4.272;2023-09-07T00:33:40;11.70;;;6.23;;
22129;SDS011;11231;50.746;4.272;2023-09-07T00:36:06;11.87;;;6.00;;
22129;SDS011;11231;50.746;4.272;2023-09-07T00:38:32;14.93;;;6.43;;
22129;SDS011;11231;50.746;4.272;2023-09-07T00:40:58;12.40;;;6.87;;
22129;SDS011;11231;50.746;4.272;2023-09-07T00:43:24;12.63;;;6.27;;
22129;SDS011;11231;50.746;4.272;2023-09-07T00:45:49;11.00;;;6.40;;
22129;SDS011;11231;50.746;4.272;2023-09-07T00:48:15;10.30;;;6.33;;
22129;SDS011;11231;50.746;4.272;2023-09-07T00:50:42;12.73;;;6.20;;
22129;SDS011;11231;50.746;4.272;2023-09-07T00:53:08;12.23;;;6.43;;
22129;SDS011;11231;50.746;4.272;2023-09-07T00:55:36;11.40;;;5.93;;
22129;SDS011;11231;50.746;4.272;2023-09-07T00:58:09;11.37;;;6.27;;
22129;SDS011;11231;50.746;4.272;2023-09-07T01:00:37;9.87;;;6.27;;
22129;SDS011;11231;50.746;4.272;2023-09-07T01:03:03;11.13;;;6.17;;
22129;SDS011;11231;50.746;4.272;2023-09-07T01:05:35;10.83;;;6.00;;
22129;SDS011;11231;50.746;4.272;2023-09-07T01:08:32;13.70;;;6.77;;
22129;SDS011;11231;50.746;4.272;2023-09-07T01:11:12;11.13;;;6.60;;
22129;SDS011;11231;50.746;4.272;2023-09-07T01:13:41;11.13;;;6.47;;
22129;SDS011;11231;50.746;4.272;2023-09-07T01:16:09;11.63;;;5.90;;
22129;SDS011;11231;50.746;4.272;2023-09-07T01:18:37;11.43;;;5.80;;
22129;SDS011;11231;50.746;4.272;2023-09-07T01:21:06;11.67;;;6.30;;
22129;SDS011;11231;50.746;4.272;2023-09-07T01:23:36;13.63;;;6.37;;
22129;SDS011;11231;50.746;4.272;2023-09-07T01:26:05;10.43;;;5.77;;
22129;SDS011;11231;50.746;4.272;2023-09-07T01:28:32;11.40;;;5.77;;
22129;SDS011;11231;50.746;4.272;2023-09-07T01:30:58;12.73;;;5.70;;
22129;SDS011;11231;50.746;4.272;2023-09-07T01:33:26;10.33;;;5.93;;
22129;SDS011;11231;50.746;4.272;2023-09-07T01:35:52;14.30;;;6.73;;
22129;SDS011;11231;50.746;4.272;2023-09-07T01:38:18;11.03;;;6.00;;
22129;SDS011;11231;50.746;4.272;2023-09-07T01:40:44;11.10;;;6.30;;
22129;SDS011;11231;50.746;4.272;2023-09-07T01:43:11;11.57;;;6.47;;
22129;SDS011;11231;50.746;4.272;2023-09-07T01:45:36;11.40;;;6.10;;
22129;SDS011;11231;50.746;4.272;2023-09-07T01:48:02;13.53;;;6.60;;
22129;SDS011;11231;50.746;4.272;2023-09-07T01:50:31;12.00;;;6.03;;
22129;SDS011;11231;50.746;4.272;2023-09-07T01:52:57;11.00;;;6.73;;
22129;SDS011;11231;50.746;4.272;2023-09-07T01:55:22;11.43;;;6.20;;
22129;SDS011;11231;50.746;4.272;2023-09-07T01:57:48;11.50;;;6.10;;
22129;SDS011;11231;50.746;4.272;2023-09-07T02:00:14;11.87;;;6.20;;
22129;SDS011;11231;50.746;4.272;2023-09-07T02:02:40;10.93;;;5.90;;
22129;SDS011;11231;50.746;4.272;2023-09-07T02:05:09;11.53;;;6.13;;
22129;SDS011;11231;50.746;4.272;2023-09-07T02:07:35;10.97;;;5.73;;
22129;SDS011;11231;50.746;4.272;2023-09-07T02:10:01;11.70;;;5.63;;
22129;SDS011;11231;50.746;4.272;2023-09-07T02:12:29;12.30;;;6.67;;
22129;SDS011;11231;50.746;4.272;2023-09-07T02:14:55;12.00;;;5.90;;
22129;SDS011;11231;50.746;4.272;2023-09-07T02:17:21;13.10;;;6.40;;
22129;SDS011;11231;50.746;4.272;2023-09-07T02:19:47;11.23;;;6.60;;
22129;SDS011;11231;50.746;4.272;2023-09-07T02:22:13;14.23;;;7.67;;
22129;SDS011;11231;50.746;4.272;2023-09-07T02:24:39;12.80;;;6.97;;
22129;SDS011;11231;50.746;4.272;2023-09-07T02:27:05;13.90;;;6.70;;
22129;SDS011;11231;50.746;4.272;2023-09-07T02:29:32;12.50;;;6.60;;
22129;SDS011;11231;50.746;4.272;2023-09-07T02:31:58;12.60;;;6.67;;
22129;SDS011;11231;50.746;4.272;2023-09-07T02:34:24;12.07;;;6.60;;
22129;SDS011;11231;50.746;4.272;2023-09-07T02:36:49;11.60;;;6.33;;
22129;SDS011;11231;50.746;4.272;2023-09-07T02:39:16;11.73;;;6.63;;
22129;SDS011;11231;50.746;4.272;2023-09-07T02:41:43;11.63;;;6.60;;
22129;SDS011;11231;50.746;4.272;2023-09-07T02:44:11;11.80;;;6.57;;
22129;SDS011;11231;50.746;4.272;2023-09-07T02:46:37;12.07;;;6.77;;
22129;SDS011;11231;50.746;4.272;2023-09-07T02:49:03;11.03;;;6.00;;
22129;SDS011;11231;50.746;4.272;2023-09-07T02:51:32;11.63;;;6.27;;
22129;SDS011;11231;50.746;4.272;2023-09-07T02:53:57;13.30;;;6.80;;
22129;SDS011;11231;50.746;4.272;2023-09-07T02:56:23;12.83;;;6.93;;
22129;SDS011;11231;50.746;4.272;2023-09-07T02:58:50;12.53;;;6.43;;
22129;SDS011;11231;50.746;4.272;2023-09-07T03:01:16;10.20;;;6.60;;
22129;SDS011;11231;50.746;4.272;2023-09-07T03:03:46;10.97;;;6.40;;
22129;SDS011;11231;50.746;4.272;2023-09-07T03:06:13;12.27;;;7.00;;
22129;SDS011;11231;50.746;4.272;2023-09-07T03:08:43;11.03;;;6.60;;
22129;SDS011;11231;50.746;4.272;2023-09-07T03:11:09;11.00;;;6.43;;
22129;SDS011;11231;50.746;4.272;2023-09-07T03:13:37;14.97;;;6.17;;
22129;SDS011;11231;50.746;4.272;2023-09-07T03:16:03;9.90;;;5.93;;
22129;SDS011;11231;50.746;4.272;2023-09-07T03:18:31;11.97;;;6.43;;
22129;SDS011;11231;50.746;4.272;2023-09-07T03:20:58;12.47;;;6.37;;
22129;SDS011;11231;50.746;4.272;2023-09-07T03:23:28;10.03;;;6.07;;
22129;SDS011;11231;50.746;4.272;2023-09-07T03:25:56;10.50;;;5.77;;
22129;SDS011;11231;50.746;4.272;2023-09-07T03:28:23;13.07;;;6.53;;
22129;SDS011;11231;50.746;4.272;2023-09-07T03:30:51;9.60;;;5.73;;
22129;SDS011;11231;50.746;4.272;2023-09-07T03:33:18;10.53;;;6.27;;
22129;SDS011;11231;50.746;4.272;2023-09-07T03:35:44;10.53;;;6.10;;
22129;SDS011;11231;50.746;4.272;2023-09-07T03:38:13;11.40;;;6.43;;
22129;SDS011;11231;50.746;4.272;2023-09-07T03:40:39;11.70;;;6.20;;
22129;SDS011;11231;50.746;4.272;2023-09-07T03:43:06;12.13;;;7.00;;
22129;SDS011;11231;50.746;4.272;2023-09-07T03:45:32;14.13;;;6.73;;
22129;SDS011;11231;50.746;4.272;2023-09-07T03:47:59;11.43;;;6.43;;
22129;SDS011;11231;50.746;4.272;2023-09-07T03:50:25;12.77;;;6.90;;
22129;SDS011;11231;50.746;4.272;2023-09-07T03:52:52;11.93;;;6.80;;
22129;SDS011;11231;50.746;4.272;2023-09-07T03:55:18;14.73;;;7.30;;
22129;SDS011;11231;50.746;4.272;2023-09-07T03:57:44;14.17;;;6.93;;
22129;SDS011;11231;50.746;4.272;2023-09-07T04:00:10;11.83;;;7.13;;
22129;SDS011;11231;50.746;4.272;2023-09-07T04:02:43;11.30;;;6.77;;
22129;SDS011;11231;50.746;4.272;2023-09-07T04:05:08;11.57;;;6.80;;
22129;SDS011;11231;50.746;4.272;2023-09-07T04:07:36;10.70;;;6.73;;
22129;SDS011;11231;50.746;4.272;2023-09-07T04:10:03;12.20;;;7.17;;
22129;SDS011;11231;50.746;4.272;2023-09-07T04:12:30;11.63;;;6.90;;
22129;SDS011;11231;50.746;4.272;2023-09-07T04:14:56;11.07;;;6.73;;
22129;SDS011;11231;50.746;4.272;2023-09-07T04:17:22;11.60;;;7.33;;
22129;SDS011;11231;50.746;4.272;2023-09-07T04:19:48;12.93;;;7.20;;
22129;SDS011;11231;50.746;4.272;2023-09-07T04:22:14;12.33;;;6.30;;
22129;SDS011;11231;50.746;4.272;2023-09-07T04:24:40;12.20;;;6.67;;
22129;SDS011;11231;50.746;4.272;2023-09-07T04:27:10;12.40;;;6.10;;
22129;SDS011;11231;50.746;4.272;2023-09-07T04:29:36;11.90;;;7.03;;
22129;SDS011;11231;50.746;4.272;2023-09-07T04:32:02;13.40;;;6.90;;
22129;SDS011;11231;50.746;4.272;2023-09-07T04:34:28;15.47;;;7.67;;
22129;SDS011;11231;50.746;4.272;2023-09-07T04:36:54;14.47;;;7.03;;
22129;SDS011;11231;50.746;4.272;2023-09-07T04:39:20;15.53;;;7.30;;
22129;SDS011;11231;50.746;4.272;2023-09-07T04:41:46;13.40;;;7.67;;
22129;SDS011;11231;50.746;4.272;2023-09-07T04:44:16;11.27;;;7.17;;
22129;SDS011;11231;50.746;4.272;2023-09-07T04:46:42;13.23;;;7.60;;
22129;SDS011;11231;50.746;4.272;2023-09-07T04:49:09;11.03;;;6.90;;
22129;SDS011;11231;50.746;4.272;2023-09-07T04:51:37;13.40;;;7.03;;
22129;SDS011;11231;50.746;4.272;2023-09-07T04:54:04;13.53;;;7.10;;
22129;SDS011;11231;50.746;4.272;2023-09-07T04:56:32;14.70;;;7.67;;
22129;SDS011;11231;50.746;4.272;2023-09-07T04:58:58;13.03;;;7.23;;
22129;SDS011;11231;50.746;4.272;2023-09-07T05:01:25;13.93;;;7.43;;
22129;SDS011;11231;50.746;4.272;2023-09-07T05:03:52;15.07;;;7.63;;
22129;SDS011;11231;50.746;4.272;2023-09-07T05:06:19;11.87;;;7.33;;
22129;SDS011;11231;50.746;4.272;2023-09-07T05:08:50;12.87;;;7.20;;
22129;SDS011;11231;50.746;4.272;2023-09-07T05:11:17;13.80;;;7.30;;
22129;SDS011;11231;50.746;4.272;2023-09-07T05:13:42;12.40;;;7.23;;
22129;SDS011;11231;50.746;4.272;2023-09-07T05:16:08;12.23;;;7.37;;
22129;SDS011;11231;50.746;4.272;2023-09-07T05:18:35;14.33;;;7.27;;
22129;SDS011;11231;50.746;4.272;2023-09-07T05:21:10;12.33;;;7.10;;
22129;SDS011;11231;50.746;4.272;2023-09-07T05:23:37;13.53;;;7.23;;
22129;SDS011;11231;50.746;4.272;2023-09-07T05:26:03;15.07;;;7.17;;
22129;SDS011;11231;50.746;4.272;2023-09-07T05:28:30;13.73;;;6.50;;
22129;SDS011;11231;50.746;4.272;2023-09-07T05:30:56;11.23;;;6.87;;
22129;SDS011;11231;50.746;4.272;2023-09-07T05:33:23;12.23;;;6.87;;
22129;SDS011;11231;50.746;4.272;2023-09-07T05:35:49;13.43;;;7.00;;
22129;SDS011;11231;50.746;4.272;2023-09-07T05:38:15;15.80;;;6.53;;
22129;SDS011;11231;50.746;4.272;2023-09-07T05:40:43;11.57;;;6.30;;
22129;SDS011;11231;50.746;4.272;2023-09-07T05:43:11;12.30;;;6.90;;
22129;SDS011;11231;50.746;4.272;2023-09-07T05:45:40;10.87;;;6.07;;
22129;SDS011;11231;50.746;4.272;2023-09-07T05:48:08;12.47;;;6.43;;
22129;SDS011;11231;50.746;4.272;2023-09-07T05:50:35;12.50;;;6.00;;
22129;SDS011;11231;50.746;4.272;2023-09-07T05:53:02;12.90;;;5.70;;
22129;SDS011;11231;50.746;4.272;2023-09-07T05:55:30;11.80;;;5.53;;
22129;SDS011;11231;50.746;4.272;2023-09-07T05:57:56;11.77;;;5.60;;
22129;SDS011;11231;50.746;4.272;2023-09-07T06:00:24;11.60;;;5.90;;
22129;SDS011;11231;50.746;4.272;2023-09-07T06:02:51;9.43;;;5.37;;
22129;SDS011;11231;50.746;4.272;2023-09-07T06:05:17;9.47;;;5.00;;
22129;SDS011;11231;50.746;4.272;2023-09-07T06:07:44;9.17;;;5.33;;
22129;SDS011;11231;50.746;4.272;2023-09-07T06:10:14;10.37;;;5.50;;
22129;SDS011;11231;50.746;4.272;2023-09-07T06:12:43;11.50;;;5.27;;
22129;SDS011;11231;50.746;4.272;2023-09-07T06:15:09;11.32;;;5.97;;
22129;SDS011;11231;50.746;4.272;2023-09-07T06:17:36;12.35;;;5.65;;
22129;SDS011;11231;50.746;4.272;2023-09-07T06:20:02;12.20;;;5.10;;
22129;SDS011;11231;50.746;4.272;2023-09-07T06:22:28;10.40;;;5.43;;
22129;SDS011;11231;50.746;4.272;2023-09-07T06:24:54;13.50;;;5.87;;
22129;SDS011;11231;50.746;4.272;2023-09-07T06:27:22;10.67;;;6.17;;
22129;SDS011;11231;50.746;4.272;2023-09-07T06:29:48;11.53;;;6.13;;
22129;SDS011;11231;50.746;4.272;2023-09-07T06:32:14;13.83;;;6.33;;
22129;SDS011;11231;50.746;4.272;2023-09-07T06:34:41;11.30;;;5.77;;
22129;SDS011;11231;50.746;4.272;2023-09-07T06:37:06;13.80;;;6.20;;
22129;SDS011;11231;50.746;4.272;2023-09-07T06:39:33;15.07;;;6.47;;
22129;SDS011;11231;50.746;4.272;2023-09-07T06:41:59;12.03;;;6.20;;
22129;SDS011;11231;50.746;4.272;2023-09-07T06:44:33;16.07;;;6.37;;
22129;SDS011;11231;50.746;4.272;2023-09-07T06:47:00;15.90;;;5.90;;
22129;SDS011;11231;50.746;4.272;2023-09-07T06:49:27;13.23;;;5.90;;
22129;SDS011;11231;50.746;4.272;2023-09-07T06:51:55;12.73;;;5.30;;
22129;SDS011;11231;50.746;4.272;2023-09-07T06:54:21;12.57;;;5.05;;
22129;SDS011;11231;50.746;4.272;2023-09-07T06:56:47;11.73;;;5.03;;
22129;SDS011;11231;50.746;4.272;2023-09-07T06:59:13;11.30;;;5.30;;
22129;SDS011;11231;50.746;4.272;2023-09-07T07:01:39;9.55;;;5.13;;
22129;SDS011;11231;50.746;4.272;2023-09-07T07:04:05;12.52;;;5.28;;
22129;SDS011;11231;50.746;4.272;2023-09-07T07:06:33;11.27;;;5.13;;
22129;SDS011;11231;50.746;4.272;2023-09-07T07:08:59;10.02;;;4.55;;
22129;SDS011;11231;50.746;4.272;2023-09-07T07:11:26;20.95;;;5.05;;
22129;SDS011;11231;50.746;4.272;2023-09-07T07:13:52;19.50;;;5.10;;
22129;SDS011;11231;50.746;4.272;2023-09-07T07:16:18;21.98;;;5.05;;
22129;SDS011;11231;50.746;4.272;2023-09-07T07:18:44;16.23;;;4.95;;
22129;SDS011;11231;50.746;4.272;2023-09-07T07:21:11;17.50;;;5.10;;
22129;SDS011;11231;50.746;4.272;2023-09-07T07:23:38;15.30;;;5.60;;
22129;SDS011;11231;50.746;4.272;2023-09-07T07:26:04;17.77;;;5.40;;
22129;SDS011;11231;50.746;4.272;2023-09-07T07:28:30;14.75;;;4.78;;
22129;SDS011;11231;50.746;4.272;2023-09-07T07:30:56;15.00;;;5.00;;
22129;SDS011;11231;50.746;4.272;2023-09-07T07:33:22;14.93;;;4.70;;
22129;SDS011;11231;50.746;4.272;2023-09-07T07:35:50;13.88;;;4.38;;
22129;SDS011;11231;50.746;4.272;2023-09-07T07:38:16;14.07;;;4.97;;
22129;SDS011;11231;50.746;4.272;2023-09-07T07:40:42;10.60;;;5.68;;
22129;SDS011;11231;50.746;4.272;2023-09-07T07:43:09;9.15;;;4.55;;
22129;SDS011;11231;50.746;4.272;2023-09-07T07:45:36;7.88;;;4.10;;
22129;SDS011;11231;50.746;4.272;2023-09-07T07:48:04;16.63;;;4.40;;
22129;SDS011;11231;50.746;4.272;2023-09-07T07:50:36;8.77;;;4.18;;
22129;SDS011;11231;50.746;4.272;2023-09-07T07:53:06;9.00;;;4.43;;
22129;SDS011;11231;50.746;4.272;2023-09-07T07:55:34;7.65;;;3.67;;
22129;SDS011;11231;50.746;4.272;2023-09-07T07:58:07;6.35;;;3.88;;
22129;SDS011;11231;50.746;4.272;2023-09-07T08:00:37;7.35;;;3.90;;
22129;SDS011;11231;50.746;4.272;2023-09-07T08:03:04;7.65;;;3.80;;
22129;SDS011;11231;50.746;4.272;2023-09-07T08:05:33;9.63;;;4.18;;
22129;SDS011;11231;50.746;4.272;2023-09-07T08:08:00;7.38;;;3.72;;
22129;SDS011;11231;50.746;4.272;2023-09-07T08:10:26;6.68;;;3.22;;
22129;SDS011;11231;50.746;4.272;2023-09-07T08:12:56;6.03;;;3.30;;
22129;SDS011;11231;50.746;4.272;2023-09-07T08:15:22;6.07;;;3.20;;
22129;SDS011;11231;50.746;4.272;2023-09-07T08:17:51;8.10;;;3.75;;
22129;SDS011;11231;50.746;4.272;2023-09-07T08:20:17;6.65;;;3.20;;
22129;SDS011;11231;50.746;4.272;2023-09-07T08:22:43;7.38;;;3.28;;
22129;SDS011;11231;50.746;4.272;2023-09-07T08:25:11;5.50;;;3.22;;
22129;SDS011;11231;50.746;4.272;2023-09-07T08:27:40;7.35;;;3.42;;
22129;SDS011;11231;50.746;4.272;2023-09-07T08:30:15;4.93;;;3.33;;
22129;SDS011;11231;50.746;4.272;2023-09-07T08:32:42;6.95;;;3.47;;
22129;SDS011;11231;50.746;4.272;2023-09-07T08:35:09;4.43;;;2.90;;
22129;SDS011;11231;50.746;4.272;2023-09-07T08:37:41;7.47;;;3.75;;
22129;SDS011;11231;50.746;4.272;2023-09-07T08:40:06;6.25;;;3.30;;
22129;SDS011;11231;50.746;4.272;2023-09-07T08:42:35;7.15;;;3.40;;
22129;SDS011;11231;50.746;4.272;2023-09-07T08:45:04;6.97;;;3.33;;
22129;SDS011;11231;50.746;4.272;2023-09-07T08:47:36;4.35;;;2.83;;
22129;SDS011;11231;50.746;4.272;2023-09-07T08:50:04;6.75;;;3.17;;
22129;SDS011;11231;50.746;4.272;2023-09-07T08:52:36;9.02;;;3.85;;
22129;SDS011;11231;50.746;4.272;2023-09-07T08:55:02;7.32;;;3.40;;
22129;SDS011;11231;50.746;4.272;2023-09-07T08:57:31;7.90;;;3.28;;
22129;SDS011;11231;50.746;4.272;2023-09-07T08:59:57;5.60;;;3.60;;
22129;SDS011;11231;50.746;4.272;2023-09-07T09:02:23;4.78;;;3.20;;
22129;SDS011;11231;50.746;4.272;2023-09-07T09:04:50;11.13;;;3.35;;
22129;SDS011;11231;50.746;4.272;2023-09-07T09:07:17;9.90;;;3.28;;
22129;SDS011;11231;50.746;4.272;2023-09-07T09:09:43;6.38;;;3.70;;
22129;SDS011;11231;50.746;4.272;2023-09-07T09:12:12;8.95;;;3.78;;
22129;SDS011;11231;50.746;4.272;2023-09-07T09:14:41;5.35;;;3.17;;
22129;SDS011;11231;50.746;4.272;2023-09-07T09:17:13;9.30;;;3.75;;
22129;SDS011;11231;50.746;4.272;2023-09-07T09:19:40;8.80;;;4.10;;
22129;SDS011;11231;50.746;4.272;2023-09-07T09:22:08;6.10;;;3.60;;
22129;SDS011;11231;50.746;4.272;2023-09-07T09:24:36;6.85;;;3.33;;
22129;SDS011;11231;50.746;4.272;2023-09-07T09:27:03;6.25;;;3.78;;
22129;SDS011;11231;50.746;4.272;2023-09-07T09:29:31;6.43;;;3.63;;
22129;SDS011;11231;50.746;4.272;2023-09-07T09:31:59;7.78;;;3.35;;
22129;SDS011;11231;50.746;4.272;2023-09-07T09:34:33;10.43;;;3.78;;
22129;SDS011;11231;50.746;4.272;2023-09-07T09:37:01;8.05;;;3.83;;
22129;SDS011;11231;50.746;4.272;2023-09-07T09:39:28;8.93;;;4.25;;
22129;SDS011;11231;50.746;4.272;2023-09-07T09:41:54;9.20;;;3.88;;
22129;SDS011;11231;50.746;4.272;2023-09-07T09:44:21;8.68;;;3.70;;
22129;SDS011;11231;50.746;4.272;2023-09-07T09:46:51;9.23;;;4.00;;
22129;SDS011;11231;50.746;4.272;2023-09-07T09:49:19;6.60;;;3.30;;
22129;SDS011;11231;50.746;4.272;2023-09-07T09:51:47;7.05;;;3.50;;
22129;SDS011;11231;50.746;4.272;2023-09-07T09:54:16;10.30;;;3.90;;
22129;SDS011;11231;50.746;4.272;2023-09-07T09:56:43;6.88;;;3.33;;
22129;SDS011;11231;50.746;4.272;2023-09-07T09:59:09;8.18;;;3.63;;
22129;SDS011;11231;50.746;4.272;2023-09-07T10:01:37;6.90;;;3.35;;
22129;SDS011;11231;50.746;4.272;2023-09-07T10:04:10;6.35;;;3.30;;
22129;SDS011;11231;50.746;4.272;2023-09-07T10:06:49;7.55;;;3.53;;
22129;SDS011;11231;50.746;4.272;2023-09-07T10:09:19;6.63;;;3.38;;
22129;SDS011;11231;50.746;4.272;2023-09-07T10:11:50;7.22;;;3.38;;
22129;SDS011;11231;50.746;4.272;2023-09-07T10:14:19;8.43;;;3.63;;
22129;SDS011;11231;50.746;4.272;2023-09-07T10:16:49;6.82;;;3.35;;
22129;SDS011;11231;50.746;4.272;2023-09-07T10:19:21;8.63;;;3.70;;
22129;SDS011;11231;50.746;4.272;2023-09-07T10:21:48;5.63;;;3.08;;
22129;SDS011;11231;50.746;4.272;2023-09-07T10:24:31;7.28;;;3.50;;
22129;SDS011;11231;50.746;4.272;2023-09-07T10:27:05;6.47;;;3.28;;
22129;SDS011;11231;50.746;4.272;2023-09-07T10:32:07;8.35;;;3.25;;
22129;SDS011;11231;50.746;4.272;2023-09-07T10:34:35;7.53;;;3.13;;
22129;SDS011;11231;50.746;4.272;2023-09-07T10:37:04;8.35;;;3.25;;
22129;SDS011;11231;50.746;4.272;2023-09-07T10:39:32;6.35;;;3.03;;
22129;SDS011;11231;50.746;4.272;2023-09-07T10:41:58;6.35;;;3.55;;
22129;SDS011;11231;50.746;4.272;2023-09-07T10:44:27;8.70;;;3.60;;
22129;SDS011;11231;50.746;4.272;2023-09-07T10:46:54;7.38;;;3.50;;
22129;SDS011;11231;50.746;4.272;2023-09-07T10:49:20;5.00;;;3.15;;
22129;SDS011;11231;50.746;4.272;2023-09-07T10:51:46;9.15;;;3.78;;
22129;SDS011;11231;50.746;4.272;2023-09-07T10:56:48;8.93;;;3.65;;
22129;SDS011;11231;50.746;4.272;2023-09-07T10:59:15;9.65;;;3.88;;
22129;SDS011;11231;50.746;4.272;2023-09-07T11:01:45;7.05;;;4.10;;
22129;SDS011;11231;50.746;4.272;2023-09-07T11:04:11;8.98;;;3.47;;
22129;SDS011;11231;50.746;4.272;2023-09-07T11:06:40;7.57;;;3.42;;
22129;SDS011;11231;50.746;4.272;2023-09-07T11:09:08;10.15;;;3.90;;
22129;SDS011;11231;50.746;4.272;2023-09-07T11:11:35;9.68;;;3.67;;
22129;SDS011;11231;50.746;4.272;2023-09-07T11:14:02;6.40;;;3.50;;
22129;SDS011;11231;50.746;4.272;2023-09-07T11:16:29;9.77;;;3.70;;
22129;SDS011;11231;50.746;4.272;2023-09-07T11:18:55;9.88;;;3.42;;
22129;SDS011;11231;50.746;4.272;2023-09-07T11:21:21;5.10;;;3.08;;
22129;SDS011;11231;50.746;4.272;2023-09-07T11:23:48;6.63;;;3.40;;
22129;SDS011;11231;50.746;4.272;2023-09-07T11:26:15;8.00;;;3.78;;
22129;SDS011;11231;50.746;4.272;2023-09-07T11:28:47;6.55;;;3.35;;
22129;SDS011;11231;50.746;4.272;2023-09-07T11:31:12;6.10;;;3.47;;
22129;SDS011;11231;50.746;4.272;2023-09-07T11:33:38;6.03;;;3.60;;
22129;SDS011;11231;50.746;4.272;2023-09-07T11:36:06;8.10;;;3.67;;
22129;SDS011;11231;50.746;4.272;2023-09-07T11:38:35;6.95;;;3.50;;
22129;SDS011;11231;50.746;4.272;2023-09-07T11:41:03;7.28;;;3.67;;
22129;SDS011;11231;50.746;4.272;2023-09-07T11:43:29;6.72;;;3.50;;
22129;SDS011;11231;50.746;4.272;2023-09-07T11:45:55;6.97;;;3.28;;
22129;SDS011;11231;50.746;4.272;2023-09-07T11:48:21;8.45;;;3.30;;
22129;SDS011;11231;50.746;4.272;2023-09-07T11:50:46;8.88;;;3.40;;
22129;SDS011;11231;50.746;4.272;2023-09-07T11:53:12;6.03;;;3.42;;
22129;SDS011;11231;50.746;4.272;2023-09-07T11:55:38;6.72;;;3.53;;
22129;SDS011;11231;50.746;4.272;2023-09-07T11:58:06;5.65;;;2.95;;
22129;SDS011;11231;50.746;4.272;2023-09-07T12:00:32;7.88;;;3.05;;
22129;SDS011;11231;50.746;4.272;2023-09-07T12:02:58;7.50;;;3.13;;
22129;SDS011;11231;50.746;4.272;2023-09-07T12:05:24;5.85;;;2.85;;
22129;SDS011;11231;50.746;4.272;2023-09-07T12:07:50;7.18;;;3.10;;
22129;SDS011;11231;50.746;4.272;2023-09-07T12:10:15;7.28;;;3.17;;
22129;SDS011;11231;50.746;4.272;2023-09-07T12:12:42;7.30;;;3.28;;
22129;SDS011;11231;50.746;4.272;2023-09-07T12:15:09;9.65;;;3.40;;
22129;SDS011;11231;50.746;4.272;2023-09-07T12:17:38;5.78;;;2.95;;
22129;SDS011;11231;50.746;4.272;2023-09-07T12:20:04;8.43;;;3.25;;
22129;SDS011;11231;50.746;4.272;2023-09-07T12:22:34;5.95;;;3.40;;
22129;SDS011;11231;50.746;4.272;2023-09-07T12:25:06;5.13;;;2.97;;
22129;SDS011;11231;50.746;4.272;2023-09-07T12:27:33;7.72;;;3.40;;
22129;SDS011;11231;50.746;4.272;2023-09-07T12:30:00;12.98;;;3.20;;
22129;SDS011;11231;50.746;4.272;2023-09-07T12:32:31;8.40;;;3.50;;
22129;SDS011;11231;50.746;4.272;2023-09-07T12:34:57;5.90;;;3.13;;
22129;SDS011;11231;50.746;4.272;2023-09-07T12:37:24;8.48;;;3.70;;
22129;SDS011;11231;50.746;4.272;2023-09-07T12:39:50;6.57;;;2.90;;
22129;SDS011;11231;50.746;4.272;2023-09-07T12:42:16;5.53;;;3.10;;
22129;SDS011;11231;50.746;4.272;2023-09-07T12:44:43;5.80;;;3.35;;
22129;SDS011;11231;50.746;4.272;2023-09-07T12:47:09;7.05;;;3.40;;
22129;SDS011;11231;50.746;4.272;2023-09-07T12:49:35;6.38;;;3.13;;
22129;SDS011;11231;50.746;4.272;2023-09-07T12:52:01;8.85;;;3.40;;
22129;SDS011;11231;50.746;4.272;2023-09-07T12:54:33;5.03;;;3.28;;
22129;SDS011;11231;50.746;4.272;2023-09-07T12:57:00;6.85;;;3.42;;
22129;SDS011;11231;50.746;4.272;2023-09-07T12:59:26;9.85;;;4.00;;
22129;SDS011;11231;50.746;4.272;2023-09-07T13:01:53;7.30;;;3.40;;
22129;SDS011;11231;50.746;4.272;2023-09-07T13:04:21;10.18;;;4.13;;
22129;SDS011;11231;50.746;4.272;2023-09-07T13:06:47;7.20;;;3.40;;
22129;SDS011;11231;50.746;4.272;2023-09-07T13:09:13;7.18;;;3.20;;
22129;SDS011;11231;50.746;4.272;2023-09-07T13:11:39;9.65;;;3.53;;
22129;SDS011;11231;50.746;4.272;2023-09-07T13:14:04;9.10;;;3.50;;
22129;SDS011;11231;50.746;4.272;2023-09-07T13:16:31;12.50;;;3.55;;
22129;SDS011;11231;50.746;4.272;2023-09-07T13:18:57;7.50;;;3.40;;
22129;SDS011;11231;50.746;4.272;2023-09-07T13:21:24;5.85;;;3.45;;
22129;SDS011;11231;50.746;4.272;2023-09-07T13:23:50;8.93;;;3.45;;
22129;SDS011;11231;50.746;4.272;2023-09-07T13:26:15;5.50;;;3.15;;
22129;SDS011;11231;50.746;4.272;2023-09-07T13:28:41;6.68;;;3.30;;
22129;SDS011;11231;50.746;4.272;2023-09-07T13:31:07;5.25;;;3.00;;
22129;SDS011;11231;50.746;4.272;2023-09-07T13:33:33;6.20;;;3.00;;
22129;SDS011;11231;50.746;4.272;2023-09-07T13:35:59;6.75;;;3.40;;
22129;SDS011;11231;50.746;4.272;2023-09-07T13:38:24;8.13;;;3.45;;
22129;SDS011;11231;50.746;4.272;2023-09-07T13:40:50;7.90;;;3.20;;
22129;SDS011;11231;50.746;4.272;2023-09-07T13:43:16;7.38;;;3.50;;
22129;SDS011;11231;50.746;4.272;2023-09-07T13:45:42;8.68;;;3.15;;
22129;SDS011;11231;50.746;4.272;2023-09-07T13:48:09;6.78;;;3.30;;
22129;SDS011;11231;50.746;4.272;2023-09-07T13:50:35;7.97;;;3.53;;
22129;SDS011;11231;50.746;4.272;2023-09-07T13:53:00;5.20;;;3.08;;
22129;SDS011;11231;50.746;4.272;2023-09-07T13:55:26;8.18;;;3.10;;
22129;SDS011;11231;50.746;4.272;2023-09-07T13:57:52;6.63;;;3.25;;
22129;SDS011;11231;50.746;4.272;2023-09-07T14:00:18;8.27;;;3.13;;
22129;SDS011;11231;50.746;4.272;2023-09-07T14:02:43;7.35;;;3.08;;
22129;SDS011;11231;50.746;4.272;2023-09-07T14:05:09;6.43;;;3.00;;
22129;SDS011;11231;50.746;4.272;2023-09-07T14:07:36;6.93;;;2.85;;
22129;SDS011;11231;50.746;4.272;2023-09-07T14:10:01;5.35;;;3.13;;
22129;SDS011;11231;50.746;4.272;2023-09-07T14:12:27;8.15;;;3.00;;
22129;SDS011;11231;50.746;4.272;2023-09-07T14:14:53;7.80;;;3.13;;
22129;SDS011;11231;50.746;4.272;2023-09-07T14:17:19;7.30;;;2.95;;
22129;SDS011;11231;50.746;4.272;2023-09-07T14:19:45;6.07;;;2.67;;
22129;SDS011;11231;50.746;4.272;2023-09-07T14:22:11;5.82;;;2.90;;
22129;SDS011;11231;50.746;4.272;2023-09-07T14:24:37;6.63;;;2.95;;
22129;SDS011;11231;50.746;4.272;2023-09-07T14:27:03;5.93;;;2.78;;
22129;SDS011;11231;50.746;4.272;2023-09-07T14:29:29;5.05;;;2.70;;
22129;SDS011;11231;50.746;4.272;2023-09-07T14:31:55;4.95;;;2.65;;
22129;SDS011;11231;50.746;4.272;2023-09-07T14:34:21;7.25;;;2.80;;
22129;SDS011;11231;50.746;4.272;2023-09-07T14:36:47;5.63;;;2.90;;
22129;SDS011;11231;50.746;4.272;2023-09-07T14:39:13;4.53;;;2.63;;
22129;SDS011;11231;50.746;4.272;2023-09-07T14:41:39;5.18;;;2.63;;
22129;SDS011;11231;50.746;4.272;2023-09-07T14:44:05;4.22;;;2.53;;
22129;SDS011;11231;50.746;4.272;2023-09-07T14:46:31;3.80;;;2.38;;